sensor_id;sensor_type;location;lat;lon;timestamp;P1;durP1;ratioP1;P2;durP2;ratioP2
23712;SDS011;12035;49.978;8.298;2023-08-17T00:00:57;4.22;;;2.50;;
23712;SDS011;12035;49.978;8.298;2023-08-17T00:05:54;3.85;;;2.45;;
23712;SDS011;12035;49.978;8.298;2023-08-17T00:10:52;5.82;;;2.92;;
23712;SDS011;12035;49.978;8.298;2023-08-17T00:15:49;10.02;;;3.58;;
23712;SDS011;12035;49.978;8.298;2023-08-17T00:20:46;7.40;;;3.53;;
23712;SDS011;12035;49.978;8.298;2023-08-17T00:25:43;8.20;;;2.88;;
23712;SDS011;12035;49.978;8.298;2023-08-17T00:30:42;5.68;;;2.92;;
23712;SDS011;12035;49.978;8.298;2023-08-17T00:35:39;4.80;;;2.17;;
23712;SDS011;12035;49.978;8.298;2023-08-17T00:40:36;4.07;;;2.03;;
23712;SDS011;12035;49.978;8.298;2023-08-17T00:45:33;4.50;;;3.30;;
23712;SDS011;12035;49.978;8.298;2023-08-17T00:50:32;9.18;;;3.45;;
23712;SDS011;12035;49.978;8.298;2023-08-17T00:55:30;7.38;;;4.60;;
23712;SDS011;12035;49.978;8.298;2023-08-17T01:00:27;7.18;;;6.03;;
23712;SDS011;12035;49.978;8.298;2023-08-17T01:05:24;8.65;;;5.20;;
23712;SDS011;12035;49.978;8.298;2023-08-17T01:10:23;7.63;;;6.05;;
23712;SDS011;12035;49.978;8.298;2023-08-17T01:15:23;7.38;;;5.68;;
23712;SDS011;12035;49.978;8.298;2023-08-17T01:20:26;6.93;;;5.38;;
23712;SDS011;12035;49.978;8.298;2023-08-17T01:25:25;5.97;;;5.30;;
23712;SDS011;12035;49.978;8.298;2023-08-17T01:30:22;5.05;;;3.67;;
23712;SDS011;12035;49.978;8.298;2023-08-17T01:35:21;4.10;;;2.83;;
23712;SDS011;12035;49.978;8.298;2023-08-17T01:40:26;3.88;;;2.45;;
23712;SDS011;12035;49.978;8.298;2023-08-17T01:45:25;5.45;;;2.20;;
23712;SDS011;12035;49.978;8.298;2023-08-17T01:50:23;3.08;;;1.90;;
23712;SDS011;12035;49.978;8.298;2023-08-17T01:55:21;2.53;;;1.77;;
23712;SDS011;12035;49.978;8.298;2023-08-17T02:00:19;4.10;;;2.00;;
23712;SDS011;12035;49.978;8.298;2023-08-17T02:05:16;3.15;;;2.38;;
23712;SDS011;12035;49.978;8.298;2023-08-17T02:10:14;4.05;;;1.92;;
23712;SDS011;12035;49.978;8.298;2023-08-17T02:15:11;4.22;;;2.40;;
23712;SDS011;12035;49.978;8.298;2023-08-17T02:20:10;3.28;;;2.15;;
23712;SDS011;12035;49.978;8.298;2023-08-17T02:25:08;3.13;;;2.00;;
23712;SDS011;12035;49.978;8.298;2023-08-17T02:30:06;3.60;;;2.15;;
23712;SDS011;12035;49.978;8.298;2023-08-17T02:35:04;4.28;;;3.28;;
23712;SDS011;12035;49.978;8.298;2023-08-17T02:40:04;5.28;;;3.70;;
23712;SDS011;12035;49.978;8.298;2023-08-17T02:45:03;4.88;;;3.35;;
23712;SDS011;12035;49.978;8.298;2023-08-17T02:50:01;8.68;;;5.47;;
23712;SDS011;12035;49.978;8.298;2023-08-17T02:54:58;9.23;;;5.25;;
23712;SDS011;12035;49.978;8.298;2023-08-17T02:59:57;5.38;;;4.00;;
23712;SDS011;12035;49.978;8.298;2023-08-17T03:04:54;6.90;;;5.38;;
23712;SDS011;12035;49.978;8.298;2023-08-17T03:09:51;7.43;;;5.30;;
23712;SDS011;12035;49.978;8.298;2023-08-17T03:14:48;8.40;;;6.13;;
23712;SDS011;12035;49.978;8.298;2023-08-17T03:19:46;7.13;;;5.45;;
23712;SDS011;12035;49.978;8.298;2023-08-17T03:24:43;5.55;;;4.63;;
23712;SDS011;12035;49.978;8.298;2023-08-17T03:29:40;4.82;;;3.95;;
23712;SDS011;12035;49.978;8.298;2023-08-17T03:34:37;6.75;;;4.53;;
23712;SDS011;12035;49.978;8.298;2023-08-17T03:39:36;5.78;;;4.38;;
23712;SDS011;12035;49.978;8.298;2023-08-17T03:44:33;7.32;;;5.43;;
23712;SDS011;12035;49.978;8.298;2023-08-17T03:49:30;7.32;;;4.88;;
23712;SDS011;12035;49.978;8.298;2023-08-17T03:54:27;8.32;;;6.40;;
23712;SDS011;12035;49.978;8.298;2023-08-17T03:59:25;7.88;;;5.97;;
23712;SDS011;12035;49.978;8.298;2023-08-17T04:04:22;9.32;;;6.75;;
23712;SDS011;12035;49.978;8.298;2023-08-17T04:09:19;9.73;;;6.90;;
23712;SDS011;12035;49.978;8.298;2023-08-17T04:14:16;6.43;;;5.30;;
23712;SDS011;12035;49.978;8.298;2023-08-17T04:19:14;4.82;;;3.80;;
23712;SDS011;12035;49.978;8.298;2023-08-17T04:24:11;5.68;;;4.13;;
23712;SDS011;12035;49.978;8.298;2023-08-17T04:29:08;6.13;;;4.07;;
23712;SDS011;12035;49.978;8.298;2023-08-17T04:34:05;4.00;;;3.30;;
23712;SDS011;12035;49.978;8.298;2023-08-17T04:39:04;3.97;;;2.97;;
23712;SDS011;12035;49.978;8.298;2023-08-17T04:44:01;4.70;;;2.10;;
23712;SDS011;12035;49.978;8.298;2023-08-17T04:48:58;3.40;;;2.13;;
23712;SDS011;12035;49.978;8.298;2023-08-17T04:53:55;3.70;;;1.73;;
23712;SDS011;12035;49.978;8.298;2023-08-17T04:58:54;3.88;;;1.52;;
23712;SDS011;12035;49.978;8.298;2023-08-17T05:03:51;2.63;;;1.50;;
23712;SDS011;12035;49.978;8.298;2023-08-17T05:08:48;6.95;;;1.33;;
23712;SDS011;12035;49.978;8.298;2023-08-17T05:13:45;3.35;;;1.10;;
23712;SDS011;12035;49.978;8.298;2023-08-17T05:18:43;2.20;;;1.25;;
23712;SDS011;12035;49.978;8.298;2023-08-17T05:23:40;2.53;;;1.33;;
23712;SDS011;12035;49.978;8.298;2023-08-17T05:28:37;1.67;;;1.10;;
23712;SDS011;12035;49.978;8.298;2023-08-17T05:33:34;2.63;;;1.10;;
23712;SDS011;12035;49.978;8.298;2023-08-17T05:38:33;1.23;;;0.90;;
23712;SDS011;12035;49.978;8.298;2023-08-17T05:43:30;2.00;;;1.10;;
23712;SDS011;12035;49.978;8.298;2023-08-17T05:48:27;1.73;;;0.95;;
23712;SDS011;12035;49.978;8.298;2023-08-17T05:53:24;1.60;;;1.30;;
23712;SDS011;12035;49.978;8.298;2023-08-17T05:58:22;1.92;;;0.85;;
23712;SDS011;12035;49.978;8.298;2023-08-17T06:03:19;1.67;;;1.13;;
23712;SDS011;12035;49.978;8.298;2023-08-17T06:08:16;1.27;;;0.95;;
23712;SDS011;12035;49.978;8.298;2023-08-17T06:13:13;1.63;;;1.20;;
23712;SDS011;12035;49.978;8.298;2023-08-17T06:18:12;1.10;;;0.95;;
23712;SDS011;12035;49.978;8.298;2023-08-17T06:23:09;2.28;;;1.08;;
23712;SDS011;12035;49.978;8.298;2023-08-17T06:28:06;2.17;;;0.90;;
23712;SDS011;12035;49.978;8.298;2023-08-17T06:33:03;2.53;;;1.05;;
23712;SDS011;12035;49.978;8.298;2023-08-17T06:38:02;1.83;;;1.05;;
23712;SDS011;12035;49.978;8.298;2023-08-17T06:42:59;3.35;;;1.15;;
23712;SDS011;12035;49.978;8.298;2023-08-17T06:47:56;2.92;;;1.00;;
23712;SDS011;12035;49.978;8.298;2023-08-17T06:52:53;2.95;;;1.20;;
23712;SDS011;12035;49.978;8.298;2023-08-17T06:57:52;2.15;;;1.08;;
23712;SDS011;12035;49.978;8.298;2023-08-17T07:02:50;1.70;;;0.80;;
23712;SDS011;12035;49.978;8.298;2023-08-17T07:07:47;4.47;;;0.90;;
23712;SDS011;12035;49.978;8.298;2023-08-17T07:12:44;1.23;;;0.80;;
23712;SDS011;12035;49.978;8.298;2023-08-17T07:17:42;1.25;;;0.80;;
23712;SDS011;12035;49.978;8.298;2023-08-17T07:22:39;1.63;;;1.00;;
23712;SDS011;12035;49.978;8.298;2023-08-17T07:27:36;2.55;;;0.95;;
23712;SDS011;12035;49.978;8.298;2023-08-17T07:32:34;3.63;;;1.27;;
23712;SDS011;12035;49.978;8.298;2023-08-17T07:37:32;1.13;;;0.80;;
23712;SDS011;12035;49.978;8.298;2023-08-17T07:42:29;3.55;;;1.40;;
23712;SDS011;12035;49.978;8.298;2023-08-17T07:47:26;1.63;;;1.08;;
23712;SDS011;12035;49.978;8.298;2023-08-17T07:52:23;3.22;;;1.30;;
23712;SDS011;12035;49.978;8.298;2023-08-17T07:57:22;3.17;;;1.50;;
23712;SDS011;12035;49.978;8.298;2023-08-17T08:02:19;2.20;;;1.30;;
23712;SDS011;12035;49.978;8.298;2023-08-17T08:07:16;2.20;;;1.35;;
23712;SDS011;12035;49.978;8.298;2023-08-17T08:12:13;2.45;;;1.40;;
23712;SDS011;12035;49.978;8.298;2023-08-17T08:17:11;3.25;;;1.35;;
23712;SDS011;12035;49.978;8.298;2023-08-17T08:22:08;4.18;;;1.48;;
23712;SDS011;12035;49.978;8.298;2023-08-17T08:27:05;2.03;;;1.15;;
23712;SDS011;12035;49.978;8.298;2023-08-17T08:32:02;3.17;;;1.58;;
23712;SDS011;12035;49.978;8.298;2023-08-17T08:37:01;2.38;;;1.50;;
23712;SDS011;12035;49.978;8.298;2023-08-17T08:41:58;2.20;;;1.35;;
23712;SDS011;12035;49.978;8.298;2023-08-17T08:46:55;3.65;;;1.40;;
23712;SDS011;12035;49.978;8.298;2023-08-17T08:51:54;4.03;;;1.60;;
23712;SDS011;12035;49.978;8.298;2023-08-17T08:56:58;6.38;;;1.50;;
23712;SDS011;12035;49.978;8.298;2023-08-17T09:01:58;3.05;;;1.63;;
23712;SDS011;12035;49.978;8.298;2023-08-17T09:06:55;2.70;;;1.75;;
23712;SDS011;12035;49.978;8.298;2023-08-17T09:11:53;4.03;;;2.10;;
23712;SDS011;12035;49.978;8.298;2023-08-17T09:16:52;3.55;;;2.55;;
23712;SDS011;12035;49.978;8.298;2023-08-17T09:21:49;2.67;;;1.90;;
23712;SDS011;12035;49.978;8.298;2023-08-17T09:26:46;2.53;;;1.80;;
23712;SDS011;12035;49.978;8.298;2023-08-17T09:31:45;3.80;;;2.08;;
23712;SDS011;12035;49.978;8.298;2023-08-17T09:36:45;5.53;;;2.30;;
23712;SDS011;12035;49.978;8.298;2023-08-17T09:41:43;3.92;;;2.65;;
23712;SDS011;12035;49.978;8.298;2023-08-17T09:46:42;2.35;;;1.52;;
23712;SDS011;12035;49.978;8.298;2023-08-17T09:51:41;5.47;;;2.55;;
23712;SDS011;12035;49.978;8.298;2023-08-17T09:56:40;3.38;;;2.20;;
23712;SDS011;12035;49.978;8.298;2023-08-17T10:01:38;3.75;;;2.38;;
23712;SDS011;12035;49.978;8.298;2023-08-17T10:06:36;5.65;;;2.80;;
23712;SDS011;12035;49.978;8.298;2023-08-17T10:11:37;2.97;;;2.10;;
23712;SDS011;12035;49.978;8.298;2023-08-17T10:16:37;3.95;;;2.10;;
23712;SDS011;12035;49.978;8.298;2023-08-17T10:21:43;2.73;;;2.00;;
23712;SDS011;12035;49.978;8.298;2023-08-17T10:26:48;5.17;;;1.73;;
23712;SDS011;12035;49.978;8.298;2023-08-17T10:31:46;6.88;;;2.22;;
23712;SDS011;12035;49.978;8.298;2023-08-17T10:36:45;3.58;;;1.88;;
23712;SDS011;12035;49.978;8.298;2023-08-17T10:41:45;3.92;;;1.77;;
23712;SDS011;12035;49.978;8.298;2023-08-17T10:46:46;3.50;;;1.77;;
23712;SDS011;12035;49.978;8.298;2023-08-17T10:51:43;3.53;;;1.83;;
23712;SDS011;12035;49.978;8.298;2023-08-17T10:56:59;2.35;;;1.55;;
23712;SDS011;12035;49.978;8.298;2023-08-17T11:02:27;3.80;;;2.00;;
23712;SDS011;12035;49.978;8.298;2023-08-17T11:07:29;6.20;;;1.90;;
23712;SDS011;12035;49.978;8.298;2023-08-17T11:12:36;2.22;;;1.60;;
23712;SDS011;12035;49.978;8.298;2023-08-17T11:17:33;4.03;;;1.90;;
23712;SDS011;12035;49.978;8.298;2023-08-17T11:22:30;4.78;;;1.88;;
23712;SDS011;12035;49.978;8.298;2023-08-17T11:27:30;5.20;;;1.58;;
23712;SDS011;12035;49.978;8.298;2023-08-17T11:32:28;8.52;;;1.70;;
23712;SDS011;12035;49.978;8.298;2023-08-17T11:37:25;3.38;;;1.63;;
23712;SDS011;12035;49.978;8.298;2023-08-17T11:42:22;2.10;;;1.40;;
23712;SDS011;12035;49.978;8.298;2023-08-17T11:47:19;9.20;;;2.90;;
23712;SDS011;12035;49.978;8.298;2023-08-17T11:52:18;3.85;;;1.73;;
23712;SDS011;12035;49.978;8.298;2023-08-17T11:57:15;4.57;;;1.40;;
23712;SDS011;12035;49.978;8.298;2023-08-17T12:02:12;2.45;;;1.27;;
23712;SDS011;12035;49.978;8.298;2023-08-17T12:07:10;3.30;;;1.45;;
23712;SDS011;12035;49.978;8.298;2023-08-17T12:12:10;8.88;;;2.30;;
23712;SDS011;12035;49.978;8.298;2023-08-17T12:17:07;4.07;;;2.10;;
23712;SDS011;12035;49.978;8.298;2023-08-17T12:22:09;3.25;;;1.60;;
23712;SDS011;12035;49.978;8.298;2023-08-17T12:27:10;6.88;;;1.70;;
23712;SDS011;12035;49.978;8.298;2023-08-17T12:32:08;3.80;;;1.30;;
23712;SDS011;12035;49.978;8.298;2023-08-17T12:37:05;3.15;;;1.30;;
23712;SDS011;12035;49.978;8.298;2023-08-17T12:42:04;1.30;;;1.00;;
23712;SDS011;12035;49.978;8.298;2023-08-17T12:47:03;3.28;;;1.30;;
23712;SDS011;12035;49.978;8.298;2023-08-17T12:52:00;3.28;;;1.60;;
23712;SDS011;12035;49.978;8.298;2023-08-17T12:56:57;3.03;;;1.60;;
23712;SDS011;12035;49.978;8.298;2023-08-17T13:01:55;4.03;;;1.33;;
23712;SDS011;12035;49.978;8.298;2023-08-17T13:06:53;4.75;;;2.00;;
23712;SDS011;12035;49.978;8.298;2023-08-17T13:11:50;9.88;;;2.40;;
23712;SDS011;12035;49.978;8.298;2023-08-17T13:16:47;3.33;;;1.60;;
23712;SDS011;12035;49.978;8.298;2023-08-17T13:21:44;4.55;;;1.55;;
23712;SDS011;12035;49.978;8.298;2023-08-17T13:26:43;6.25;;;1.65;;
23712;SDS011;12035;49.978;8.298;2023-08-17T13:31:40;2.40;;;1.40;;
23712;SDS011;12035;49.978;8.298;2023-08-17T13:36:37;2.80;;;1.30;;
23712;SDS011;12035;49.978;8.298;2023-08-17T13:41:34;1.77;;;1.17;;
23712;SDS011;12035;49.978;8.298;2023-08-17T13:46:33;1.98;;;1.40;;
23712;SDS011;12035;49.978;8.298;2023-08-17T13:51:30;1.80;;;1.30;;
23712;SDS011;12035;49.978;8.298;2023-08-17T13:56:27;1.95;;;1.17;;
23712;SDS011;12035;49.978;8.298;2023-08-17T14:01:24;3.28;;;1.42;;
23712;SDS011;12035;49.978;8.298;2023-08-17T14:06:22;1.50;;;0.98;;
23712;SDS011;12035;49.978;8.298;2023-08-17T14:11:19;2.35;;;1.10;;
23712;SDS011;12035;49.978;8.298;2023-08-17T14:16:16;2.13;;;1.10;;
23712;SDS011;12035;49.978;8.298;2023-08-17T14:21:13;2.08;;;1.30;;
23712;SDS011;12035;49.978;8.298;2023-08-17T14:26:12;3.47;;;1.30;;
23712;SDS011;12035;49.978;8.298;2023-08-17T14:31:09;1.90;;;1.20;;
23712;SDS011;12035;49.978;8.298;2023-08-17T14:36:07;2.05;;;1.38;;
23712;SDS011;12035;49.978;8.298;2023-08-17T14:41:03;1.95;;;1.23;;
23712;SDS011;12035;49.978;8.298;2023-08-17T14:46:03;2.22;;;1.30;;
23712;SDS011;12035;49.978;8.298;2023-08-17T14:51:00;2.88;;;1.67;;
23712;SDS011;12035;49.978;8.298;2023-08-17T14:55:57;2.95;;;1.17;;
23712;SDS011;12035;49.978;8.298;2023-08-17T15:00:54;1.40;;;1.00;;
23712;SDS011;12035;49.978;8.298;2023-08-17T15:05:53;1.48;;;1.00;;
23712;SDS011;12035;49.978;8.298;2023-08-17T15:10:50;2.00;;;1.10;;
23712;SDS011;12035;49.978;8.298;2023-08-17T15:15:47;1.25;;;0.95;;
23712;SDS011;12035;49.978;8.298;2023-08-17T15:20:44;2.92;;;1.00;;
23712;SDS011;12035;49.978;8.298;2023-08-17T15:25:43;1.75;;;1.00;;
23712;SDS011;12035;49.978;8.298;2023-08-17T15:30:40;1.55;;;0.93;;
23712;SDS011;12035;49.978;8.298;2023-08-17T15:35:37;1.10;;;0.90;;
23712;SDS011;12035;49.978;8.298;2023-08-17T15:40:34;2.13;;;0.90;;
23712;SDS011;12035;49.978;8.298;2023-08-17T15:45:32;1.80;;;1.02;;
23712;SDS011;12035;49.978;8.298;2023-08-17T15:50:29;2.40;;;1.30;;
23712;SDS011;12035;49.978;8.298;2023-08-17T15:55:26;1.92;;;1.20;;
23712;SDS011;12035;49.978;8.298;2023-08-17T16:00:23;2.35;;;0.98;;
23712;SDS011;12035;49.978;8.298;2023-08-17T16:05:22;2.30;;;1.00;;
23712;SDS011;12035;49.978;8.298;2023-08-17T16:10:19;2.20;;;1.33;;
23712;SDS011;12035;49.978;8.298;2023-08-17T16:15:16;2.53;;;1.15;;
23712;SDS011;12035;49.978;8.298;2023-08-17T16:20:15;1.40;;;0.85;;
23712;SDS011;12035;49.978;8.298;2023-08-17T16:25:13;2.28;;;1.38;;
23712;SDS011;12035;49.978;8.298;2023-08-17T16:30:10;6.25;;;1.67;;
23712;SDS011;12035;49.978;8.298;2023-08-17T16:35:08;1.92;;;1.10;;
23712;SDS011;12035;49.978;8.298;2023-08-17T16:40:06;2.47;;;1.40;;
23712;SDS011;12035;49.978;8.298;2023-08-17T16:45:06;1.27;;;1.05;;
23712;SDS011;12035;49.978;8.298;2023-08-17T16:50:03;2.75;;;1.40;;
23712;SDS011;12035;49.978;8.298;2023-08-17T16:55:01;2.20;;;1.33;;
23712;SDS011;12035;49.978;8.298;2023-08-17T16:59:59;2.08;;;1.30;;
23712;SDS011;12035;49.978;8.298;2023-08-17T17:04:58;3.00;;;1.48;;
23712;SDS011;12035;49.978;8.298;2023-08-17T17:09:57;2.22;;;1.30;;
23712;SDS011;12035;49.978;8.298;2023-08-17T17:14:54;2.65;;;1.50;;
23712;SDS011;12035;49.978;8.298;2023-08-17T17:19:51;1.45;;;1.20;;
23712;SDS011;12035;49.978;8.298;2023-08-17T17:24:49;3.25;;;1.40;;
23712;SDS011;12035;49.978;8.298;2023-08-17T17:29:46;2.05;;;1.50;;
23712;SDS011;12035;49.978;8.298;2023-08-17T17:34:44;2.65;;;1.63;;
23712;SDS011;12035;49.978;8.298;2023-08-17T17:39:41;2.80;;;1.50;;
23712;SDS011;12035;49.978;8.298;2023-08-17T17:44:39;6.00;;;2.05;;
23712;SDS011;12035;49.978;8.298;2023-08-17T17:49:36;3.35;;;1.73;;
23712;SDS011;12035;49.978;8.298;2023-08-17T17:54:33;2.53;;;1.63;;
23712;SDS011;12035;49.978;8.298;2023-08-17T17:59:32;2.70;;;1.50;;
23712;SDS011;12035;49.978;8.298;2023-08-17T18:04:30;4.43;;;1.90;;
23712;SDS011;12035;49.978;8.298;2023-08-17T18:09:27;4.70;;;1.60;;
23712;SDS011;12035;49.978;8.298;2023-08-17T18:14:24;3.90;;;1.52;;
23712;SDS011;12035;49.978;8.298;2023-08-17T18:19:21;3.08;;;1.50;;
23712;SDS011;12035;49.978;8.298;2023-08-17T18:24:20;1.63;;;1.30;;
23712;SDS011;12035;49.978;8.298;2023-08-17T18:29:17;2.13;;;1.42;;
23712;SDS011;12035;49.978;8.298;2023-08-17T18:34:14;3.30;;;1.50;;
23712;SDS011;12035;49.978;8.298;2023-08-17T18:39:11;2.65;;;1.67;;
23712;SDS011;12035;49.978;8.298;2023-08-17T18:44:09;3.55;;;1.48;;
23712;SDS011;12035;49.978;8.298;2023-08-17T18:49:06;2.53;;;1.80;;
23712;SDS011;12035;49.978;8.298;2023-08-17T18:54:03;2.58;;;1.60;;
23712;SDS011;12035;49.978;8.298;2023-08-17T18:59:01;2.22;;;1.33;;
23712;SDS011;12035;49.978;8.298;2023-08-17T19:04:00;2.85;;;1.75;;
23712;SDS011;12035;49.978;8.298;2023-08-17T19:08:57;4.72;;;1.90;;
23712;SDS011;12035;49.978;8.298;2023-08-17T19:13:55;4.13;;;1.75;;
23712;SDS011;12035;49.978;8.298;2023-08-17T19:18:52;2.75;;;1.52;;
23712;SDS011;12035;49.978;8.298;2023-08-17T19:23:50;2.50;;;1.67;;
23712;SDS011;12035;49.978;8.298;2023-08-17T19:28:47;3.08;;;1.38;;
23712;SDS011;12035;49.978;8.298;2023-08-17T19:33:44;2.20;;;1.58;;
23712;SDS011;12035;49.978;8.298;2023-08-17T19:38:42;5.03;;;2.03;;
23712;SDS011;12035;49.978;8.298;2023-08-17T19:43:40;3.22;;;1.85;;
23712;SDS011;12035;49.978;8.298;2023-08-17T19:48:37;2.92;;;1.70;;
23712;SDS011;12035;49.978;8.298;2023-08-17T19:53:34;3.00;;;1.73;;
23712;SDS011;12035;49.978;8.298;2023-08-17T19:58:31;2.15;;;1.50;;
23712;SDS011;12035;49.978;8.298;2023-08-17T20:03:29;2.67;;;1.77;;
23712;SDS011;12035;49.978;8.298;2023-08-17T20:08:26;5.97;;;2.05;;
23712;SDS011;12035;49.978;8.298;2023-08-17T20:13:23;5.18;;;2.20;;
23712;SDS011;12035;49.978;8.298;2023-08-17T20:18:20;4.15;;;2.10;;
23712;SDS011;12035;49.978;8.298;2023-08-17T20:23:19;2.25;;;1.63;;
23712;SDS011;12035;49.978;8.298;2023-08-17T20:28:16;4.30;;;2.13;;
23712;SDS011;12035;49.978;8.298;2023-08-17T20:33:13;3.38;;;1.98;;
23712;SDS011;12035;49.978;8.298;2023-08-17T20:38:10;2.60;;;1.50;;
23712;SDS011;12035;49.978;8.298;2023-08-17T20:43:09;3.72;;;1.80;;
23712;SDS011;12035;49.978;8.298;2023-08-17T20:48:06;4.55;;;2.08;;
23712;SDS011;12035;49.978;8.298;2023-08-17T20:53:04;3.15;;;1.80;;
23712;SDS011;12035;49.978;8.298;2023-08-17T20:58:02;2.83;;;1.80;;
23712;SDS011;12035;49.978;8.298;2023-08-17T21:03:00;2.72;;;1.65;;
23712;SDS011;12035;49.978;8.298;2023-08-17T21:07:58;2.45;;;1.80;;
23712;SDS011;12035;49.978;8.298;2023-08-17T21:12:57;3.47;;;1.75;;
23712;SDS011;12035;49.978;8.298;2023-08-17T21:17:54;2.83;;;2.00;;
23712;SDS011;12035;49.978;8.298;2023-08-17T21:22:53;3.95;;;2.00;;
23712;SDS011;12035;49.978;8.298;2023-08-17T21:27:51;4.40;;;1.80;;
23712;SDS011;12035;49.978;8.298;2023-08-17T21:32:48;3.25;;;2.00;;
23712;SDS011;12035;49.978;8.298;2023-08-17T21:37:45;3.90;;;2.30;;
23712;SDS011;12035;49.978;8.298;2023-08-17T21:42:43;3.40;;;2.00;;
23712;SDS011;12035;49.978;8.298;2023-08-17T21:47:40;4.45;;;1.63;;
23712;SDS011;12035;49.978;8.298;2023-08-17T21:52:37;2.20;;;1.60;;
23712;SDS011;12035;49.978;8.298;2023-08-17T21:57:34;2.08;;;1.30;;
23712;SDS011;12035;49.978;8.298;2023-08-17T22:02:32;1.92;;;1.20;;
23712;SDS011;12035;49.978;8.298;2023-08-17T22:07:29;2.03;;;1.40;;
23712;SDS011;12035;49.978;8.298;2023-08-17T22:12:26;2.85;;;1.60;;
23712;SDS011;12035;49.978;8.298;2023-08-17T22:17:24;2.22;;;1.70;;
23712;SDS011;12035;49.978;8.298;2023-08-17T22:22:22;2.95;;;1.50;;
23712;SDS011;12035;49.978;8.298;2023-08-17T22:27:19;2.50;;;1.30;;
23712;SDS011;12035;49.978;8.298;2023-08-17T22:32:16;2.60;;;1.45;;
23712;SDS011;12035;49.978;8.298;2023-08-17T22:37:13;1.83;;;1.30;;
23712;SDS011;12035;49.978;8.298;2023-08-17T22:42:13;2.45;;;1.45;;
23712;SDS011;12035;49.978;8.298;2023-08-17T22:47:10;2.15;;;1.38;;
23712;SDS011;12035;49.978;8.298;2023-08-17T22:52:07;4.65;;;1.70;;
23712;SDS011;12035;49.978;8.298;2023-08-17T22:57:04;3.08;;;1.80;;
23712;SDS011;12035;49.978;8.298;2023-08-17T23:02:03;2.15;;;1.60;;
23712;SDS011;12035;49.978;8.298;2023-08-17T23:07:01;2.40;;;1.67;;
23712;SDS011;12035;49.978;8.298;2023-08-17T23:11:59;4.15;;;1.58;;
23712;SDS011;12035;49.978;8.298;2023-08-17T23:16:56;2.40;;;1.50;;
23712;SDS011;12035;49.978;8.298;2023-08-17T23:21:55;2.00;;;1.42;;
23712;SDS011;12035;49.978;8.298;2023-08-17T23:26:52;2.05;;;1.50;;
23712;SDS011;12035;49.978;8.298;2023-08-17T23:31:49;2.55;;;1.80;;
23712;SDS011;12035;49.978;8.298;2023-08-17T23:36:46;2.97;;;1.80;;
23712;SDS011;12035;49.978;8.298;2023-08-17T23:41:44;2.63;;;1.67;;
23712;SDS011;12035;49.978;8.298;2023-08-17T23:46:41;4.78;;;2.00;;
23712;SDS011;12035;49.978;8.298;2023-08-17T23:51:39;3.28;;;2.10;;
23712;SDS011;12035;49.978;8.298;2023-08-17T23:56:36;2.80;;;1.50;;
